Sierraville, California
Current Conditions -  °F | °C
As of 12:55 PM on Saturday 25 Oct 2014 (Local Time) from KTRK Reporting Station
Moderate Rain Moderate Rain  
Wind Chill: 34°   Ceiling: 2300
Heat Index: 41°   Visibility: 7mi
Dew Point: 37°   Wind: 12mph
Humidity: 87%   Direction: 260°W
Pressure: 30.09"   Gusts: NA
Location:  39.59°N, 120.37°W
Report Text: KTRK 251955Z 26010KT 7SM RA OVC023 05/03 A3009 RMK NOSPECI
Loading
Personal Weather Stations






























Interactive Weather Map New forecast layout! Learn more

10-Day Weather Forecast

Advertisements
Track Severe Weather on mobile